Time;durP1;ratioP1;P1;durP2;ratioP2;P2;SDS_P1;SDS_P2;PMS_P1;PMS_P2;Temp;Humidity;BMP_temperature;BMP_pressure;BME280_temperature;BME280_humidity;BME280_pressure;Samples;Min_cycle;Max_cycle;Signal;HPM_P1;HPM_P2
2022/01/04 00:02:24;;;;;;;36.13;7.53;;;;;;;7.90;100.00;99923.66;4920662;28;20049;-74
2022/01/04 00:04:50;;;;;;;41.28;6.03;;;;;;;7.89;100.00;99922.00;4916363;28;20046;-74
2022/01/04 00:07:15;;;;;;;29.75;6.15;;;;;;;7.92;100.00;99916.19;4912706;28;20086;-74
2022/01/04 00:09:43;;;;;;;41.72;7.80;;;;;;;7.90;100.00;99912.94;4922128;28;20031;-74
2022/01/04 00:14:55;;;;;;;31.48;6.82;;;;;;;7.91;100.00;99911.06;4939092;28;20044;-74
2022/01/04 00:17:21;;;;;;;40.28;8.00;;;;;;;7.87;100.00;99898.09;4894486;28;20053;-74
2022/01/04 00:19:46;;;;;;;37.88;6.82;;;;;;;7.93;100.00;99893.69;4923528;28;22661;-74
2022/01/04 00:22:12;;;;;;;27.85;6.32;;;;;;;7.99;100.00;99900.06;4928303;28;20149;-74
2022/01/04 00:24:37;;;;;;;36.42;6.78;;;;;;;7.96;100.00;99897.81;4911386;28;20058;-74
2022/01/04 00:27:03;;;;;;;42.10;8.75;;;;;;;7.93;100.00;99890.22;4924933;28;20050;-74
2022/01/04 00:29:29;;;;;;;36.42;7.65;;;;;;;7.96;100.00;99876.38;4912566;28;20109;-74
2022/01/04 00:31:54;;;;;;;35.42;7.50;;;;;;;7.94;100.00;99889.19;4926704;28;20687;-74
2022/01/04 00:34:20;;;;;;;45.17;8.15;;;;;;;7.95;100.00;99880.09;4909469;28;20426;-74
2022/01/04 00:36:45;;;;;;;34.70;7.40;;;;;;;7.96;100.00;99879.03;4911208;28;20050;-72
2022/01/04 00:39:10;;;;;;;26.08;7.72;;;;;;;8.00;100.00;99874.88;4925403;28;20043;-73
2022/01/04 00:41:36;;;;;;;35.85;7.13;;;;;;;8.02;100.00;99870.13;4913629;28;20062;-74
2022/01/04 00:44:02;;;;;;;37.83;7.13;;;;;;;8.09;100.00;99873.56;4925141;28;20098;-73
2022/01/04 00:46:27;;;;;;;36.40;7.80;;;;;;;8.04;100.00;99871.56;4909678;28;22485;-72
2022/01/04 00:49:11;;;;;;;31.35;7.05;;;;;;;7.95;100.00;99861.31;4909529;28;20050;-73
2022/01/04 00:51:47;;;;;;;36.42;6.97;;;;;;;7.80;100.00;99857.13;4926855;28;20043;-74
2022/01/04 00:54:13;;;;;;;36.90;7.00;;;;;;;7.66;100.00;99852.91;4907488;28;20061;-74
2022/01/04 00:56:40;;;;;;;33.15;7.03;;;;;;;7.55;100.00;99845.56;4910114;28;22741;-74
2022/01/04 00:59:05;;;;;;;30.83;8.07;;;;;;;7.47;100.00;99832.41;4920434;28;20107;-74
2022/01/04 01:01:31;;;;;;;35.17;6.45;;;;;;;7.44;100.00;99847.09;4918918;28;20050;-74
2022/01/04 01:03:57;;;;;;;27.58;6.25;;;;;;;7.38;100.00;99835.38;4926796;28;20022;-74
2022/01/04 01:06:23;;;;;;;38.40;7.82;;;;;;;7.37;100.00;99833.72;4912680;28;20539;-74
2022/01/04 01:08:48;;;;;;;40.17;7.10;;;;;;;7.31;100.00;99831.09;4940853;28;20031;-74
2022/01/04 01:11:14;;;;;;;36.75;7.35;;;;;;;7.25;100.00;99827.41;4919580;28;20071;-74
2022/01/04 01:13:40;;;;;;;35.50;7.00;;;;;;;7.20;100.00;99821.88;4916755;28;20051;-74
2022/01/04 01:16:06;;;;;;;42.63;7.10;;;;;;;7.23;100.00;99817.94;4911618;28;20046;-74
2022/01/04 01:18:32;;;;;;;40.20;7.35;;;;;;;7.32;100.00;99809.44;4911398;28;20055;-74
2022/01/04 01:20:59;;;;;;;39.25;8.32;;;;;;;7.41;100.00;99810.81;4926400;28;20027;-74
2022/01/04 01:23:25;;;;;;;36.60;7.38;;;;;;;7.55;100.00;99802.69;4921422;28;20221;-74
2022/01/04 01:25:51;;;;;;;32.60;7.32;;;;;;;7.58;100.00;99808.44;4897512;28;20051;-74
2022/01/04 01:28:18;;;;;;;43.83;6.88;;;;;;;7.52;100.00;99797.75;4924989;28;20031;-74
2022/01/04 01:30:44;;;;;;;35.20;7.78;;;;;;;7.49;100.00;99804.38;4893880;28;20198;-74
2022/01/04 01:33:10;;;;;;;42.38;7.45;;;;;;;7.46;100.00;99809.34;4925888;28;20034;-74
2022/01/04 01:35:37;;;;;;;33.55;7.75;;;;;;;7.54;100.00;99791.13;4916460;28;20058;-74
2022/01/04 01:38:03;;;;;;;37.03;7.25;;;;;;;7.59;100.00;99795.84;4918057;28;20042;-74
2022/01/04 01:40:29;;;;;;;34.20;8.55;;;;;;;7.60;100.00;99794.78;4926598;28;20054;-74
2022/01/04 01:42:55;;;;;;;36.67;8.57;;;;;;;7.64;100.00;99782.59;4910369;28;20077;-74
2022/01/04 01:45:23;;;;;;;52.10;9.30;;;;;;;7.74;100.00;99777.56;4924007;28;20062;-74
2022/01/04 01:47:49;;;;;;;43.90;9.02;;;;;;;7.83;100.00;99783.47;4910393;28;20055;-74
2022/01/04 01:50:15;;;;;;;30.50;7.07;;;;;;;7.85;100.00;99771.47;4906606;28;20135;-74
2022/01/04 01:52:42;;;;;;;42.40;7.63;;;;;;;7.91;100.00;99768.94;4928271;28;20123;-74
2022/01/04 01:55:08;;;;;;;42.30;9.07;;;;;;;7.88;100.00;99760.31;4908257;28;20047;-74
2022/01/04 01:57:34;;;;;;;36.67;8.02;;;;;;;7.92;100.00;99759.84;4926081;28;22587;-74
2022/01/04 01:59:59;;;;;;;38.88;9.43;;;;;;;7.95;100.00;99765.59;4908894;28;20053;-74
2022/01/04 02:02:25;;;;;;;42.38;8.43;;;;;;;7.96;100.00;99756.50;4924042;28;20039;-74
2022/01/04 02:04:50;;;;;;;40.15;8.68;;;;;;;7.93;100.00;99740.03;4925296;28;20098;-72
2022/01/04 02:07:19;;;;;;;43.45;8.50;;;;;;;7.96;100.00;99743.09;4910620;28;20050;-75
2022/01/04 02:09:52;;;;;;;28.90;7.10;;;;;;;7.98;100.00;99742.88;4923653;28;20039;-74
2022/01/04 02:12:18;;;;;;;44.40;8.25;;;;;;;7.96;100.00;99744.97;4909981;28;20062;-74
2022/01/04 02:14:49;;;;;;;32.53;8.00;;;;;;;7.93;100.00;99735.50;4925611;28;20043;-74
2022/01/04 02:17:14;;;;;;;32.47;7.60;;;;;;;7.99;100.00;99731.13;4921138;28;20779;-74
2022/01/04 02:19:40;;;;;;;36.22;7.60;;;;;;;8.03;100.00;99729.63;4915449;28;20059;-74
2022/01/04 02:22:05;;;;;;;43.13;7.72;;;;;;;8.03;100.00;99730.44;4925116;28;20045;-74
2022/01/04 02:24:32;;;;;;;32.75;6.68;;;;;;;8.06;100.00;99730.00;4909361;28;20055;-74
2022/01/04 02:26:59;;;;;;;34.33;7.38;;;;;;;8.06;100.00;99729.19;4927812;28;20034;-74
2022/01/04 02:29:26;;;;;;;46.65;9.05;;;;;;;8.03;100.00;99714.34;4918738;28;20027;-74
2022/01/04 02:31:52;;;;;;;33.40;6.20;;;;;;;8.08;100.00;99711.81;4916383;28;20117;-74
2022/01/04 02:34:18;;;;;;;27.80;7.15;;;;;;;8.03;100.00;99714.34;4924774;28;20066;-74
2022/01/04 02:36:44;;;;;;;33.08;6.35;;;;;;;8.00;100.00;99713.97;4909155;28;20165;-74
2022/01/04 02:39:09;;;;;;;32.28;6.80;;;;;;;7.96;100.00;99712.78;4924350;28;20539;-74
2022/01/04 02:41:35;;;;;;;32.53;7.40;;;;;;;7.92;100.00;99707.03;4903427;28;20133;-74
2022/01/04 02:44:00;;;;;;;40.28;7.35;;;;;;;7.93;100.00;99705.19;4915011;28;20151;-74
2022/01/04 02:46:25;;;;;;;44.58;7.72;;;;;;;7.94;100.00;99709.53;4922786;28;20139;-74
2022/01/04 02:48:51;;;;;;;37.28;9.43;;;;;;;7.97;100.00;99698.31;4910119;28;20066;-74
2022/01/04 02:51:18;;;;;;;42.35;8.00;;;;;;;7.95;100.00;99700.44;4922044;28;20035;-74
2022/01/04 02:53:44;;;;;;;34.22;8.38;;;;;;;7.93;100.00;99694.47;4920863;28;21083;-74
2022/01/04 02:56:11;;;;;;;31.60;8.80;;;;;;;7.92;100.00;99695.50;4914530;28;20054;-74
2022/01/04 02:58:36;;;;;;;39.88;9.05;;;;;;;7.94;100.00;99682.72;4922365;28;20027;-73
2022/01/04 03:01:02;;;;;;;36.47;8.68;;;;;;;7.91;100.00;99673.25;4908295;28;20057;-74
2022/01/04 03:03:28;;;;;;;38.65;9.20;;;;;;;7.87;100.00;99670.19;4925339;28;20783;-74
2022/01/04 03:05:53;;;;;;;37.17;9.57;;;;;;;7.85;100.00;99666.91;4916483;28;20106;-74
2022/01/04 03:08:19;;;;;;;37.70;9.55;;;;;;;7.85;100.00;99656.19;4911552;28;20545;-73
2022/01/04 03:10:44;;;;;;;41.30;9.32;;;;;;;7.88;100.00;99663.78;4923870;28;20035;-73
2022/01/04 03:13:10;;;;;;;30.92;10.15;;;;;;;7.88;100.00;99653.03;4906273;28;20063;-74
2022/01/04 03:15:36;;;;;;;34.05;9.05;;;;;;;7.88;100.00;99653.03;4922451;28;20133;-74
2022/01/04 03:18:01;;;;;;;47.78;10.00;;;;;;;7.84;100.00;99645.69;4915047;28;20047;-73
2022/01/04 03:20:26;;;;;;;39.03;10.52;;;;;;;7.77;100.00;99645.75;4913890;28;20055;-74
2022/01/04 03:22:52;;;;;;;38.95;10.70;;;;;;;7.86;100.00;99644.44;4922433;28;20403;-74
2022/01/04 03:25:17;;;;;;;37.40;10.10;;;;;;;7.82;100.00;99643.22;4906643;28;20062;-72
2022/01/04 03:27:43;;;;;;;34.80;10.65;;;;;;;7.77;100.00;99635.03;4923234;28;20077;-74
2022/01/04 03:30:09;;;;;;;40.92;10.82;;;;;;;7.70;100.00;99628.94;4916422;28;20047;-74
2022/01/04 03:32:34;;;;;;;34.55;10.35;;;;;;;7.76;100.00;99633.41;4914351;28;20050;-73
2022/01/04 03:35:00;;;;;;;50.22;12.10;;;;;;;7.76;100.00;99627.22;4924235;28;20031;-73
2022/01/04 03:37:25;;;;;;;49.25;11.93;;;;;;;7.71;100.00;99627.88;4910866;28;20498;-73
2022/01/04 03:39:51;;;;;;;39.88;11.35;;;;;;;7.67;100.00;99624.00;4922580;28;20051;-73
2022/01/04 03:42:16;;;;;;;32.97;12.18;;;;;;;7.66;100.00;99617.03;4918069;28;20069;-73
2022/01/04 03:44:41;;;;;;;39.40;12.82;;;;;;;7.59;100.00;99616.28;4915203;28;20109;-73
2022/01/04 03:47:08;;;;;;;40.53;12.82;;;;;;;7.52;100.00;99604.81;4938469;28;20061;-73
2022/01/04 03:49:33;;;;;;;39.17;12.07;;;;;;;7.56;100.00;99595.28;4906296;28;20054;-73
2022/01/04 03:51:59;;;;;;;35.03;12.88;;;;;;;7.60;100.00;99596.47;4907734;28;20035;-74
2022/01/04 03:54:24;;;;;;;36.13;12.70;;;;;;;7.60;100.00;99596.47;4920806;28;20049;-73
2022/01/04 03:56:50;;;;;;;45.85;12.70;;;;;;;7.54;100.00;99575.91;4914604;28;20039;-73
2022/01/04 03:59:15;;;;;;;47.95;13.18;;;;;;;7.51;100.00;99577.22;4924571;28;20487;-74
2022/01/04 04:01:41;;;;;;;47.72;13.65;;;;;;;7.47;100.00;99575.19;4907058;28;20356;-74
2022/01/04 04:04:06;;;;;;;46.30;14.55;;;;;;;7.43;100.00;99579.34;4924050;28;20160;-74
2022/01/04 04:06:32;;;;;;;46.50;16.05;;;;;;;7.47;100.00;99575.19;4917251;28;20075;-74
2022/01/04 04:08:57;;;;;;;42.13;13.95;;;;;;;7.50;100.00;99555.97;4912003;28;20090;-73
2022/01/04 04:11:24;;;;;;;45.65;14.02;;;;;;;7.50;100.00;99564.03;4922597;28;22850;-74
2022/01/04 04:13:50;;;;;;;49.92;15.48;;;;;;;7.52;100.00;99552.03;4910877;28;20065;-74
2022/01/04 04:16:15;;;;;;;54.38;14.02;;;;;;;7.52;100.00;99540.50;4922926;28;20084;-74
2022/01/04 04:18:42;;;;;;;38.75;13.75;;;;;;;7.53;100.00;99542.13;4897748;28;20058;-74
2022/01/04 04:21:07;;;;;;;41.58;13.55;;;;;;;7.55;100.00;99540.06;4909644;28;20581;-74
2022/01/04 04:23:32;;;;;;;37.55;14.90;;;;;;;7.55;100.00;99529.34;4905159;28;20081;-74
2022/01/04 04:25:58;;;;;;;49.45;15.55;;;;;;;7.52;100.00;99519.06;4906777;28;20061;-74
2022/01/04 04:28:23;;;;;;;40.58;15.55;;;;;;;7.54;100.00;99520.47;4922200;28;20040;-74
2022/01/04 04:30:49;;;;;;;41.58;16.67;;;;;;;7.54;100.00;99511.59;4928562;28;20043;-75
2022/01/04 04:33:14;;;;;;;47.70;16.38;;;;;;;7.54;100.00;99517.78;4919506;28;20281;-74
2022/01/04 04:35:40;;;;;;;45.42;15.50;;;;;;;7.63;100.00;99518.31;4923960;28;20466;-74
2022/01/04 04:38:06;;;;;;;55.42;17.58;;;;;;;7.58;100.00;99504.75;4907232;28;20051;-74
2022/01/04 04:40:33;;;;;;;56.35;17.15;;;;;;;7.59;100.00;99514.44;4889937;28;20057;-75
2022/01/04 04:42:58;;;;;;;35.00;14.93;;;;;;;7.54;100.00;99506.25;4908666;28;20534;-73
2022/01/04 04:45:24;;;;;;;43.50;17.00;;;;;;;7.50;100.00;99502.38;4907310;28;20032;-73
2022/01/04 04:47:49;;;;;;;46.47;16.67;;;;;;;7.56;100.00;99501.50;4922659;28;20031;-73
2022/01/04 04:50:15;;;;;;;52.95;17.60;;;;;;;7.51;100.00;99491.47;4908557;28;20051;-73
2022/01/04 04:52:40;;;;;;;51.10;16.33;;;;;;;7.49;100.00;99501.56;4906425;28;20554;-75
2022/01/04 04:55:07;;;;;;;52.42;18.80;;;;;;;7.44;100.00;99500.59;4908165;28;21052;-75
2022/01/04 04:57:32;;;;;;;49.17;19.10;;;;;;;7.44;100.00;99503.28;4923858;28;20062;-73
2022/01/04 04:59:58;;;;;;;49.90;18.20;;;;;;;7.39;100.00;99503.97;4922271;28;23535;-74
2022/01/04 05:02:23;;;;;;;45.55;20.05;;;;;;;7.45;100.00;99502.25;4911430;28;20087;-73
2022/01/04 05:04:49;;;;;;;51.38;19.50;;;;;;;7.47;100.00;99494.78;4926784;28;20034;-74
2022/01/04 05:07:14;;;;;;;54.00;19.02;;;;;;;7.53;100.00;99499.25;4908437;28;21722;-73
2022/01/04 05:09:40;;;;;;;56.05;20.98;;;;;;;7.56;100.00;99498.81;4926469;28;20042;-73
2022/01/04 05:12:06;;;;;;;54.33;19.05;;;;;;;7.55;100.00;99487.28;4923701;28;20165;-74
2022/01/04 05:14:32;;;;;;;57.22;18.90;;;;;;;7.56;100.00;99490.78;4911327;28;20055;-74
2022/01/04 05:16:58;;;;;;;48.97;20.88;;;;;;;7.54;100.00;99487.50;4924652;28;20093;-74
2022/01/04 05:19:23;;;;;;;59.47;19.77;;;;;;;7.51;100.00;99482.56;4906857;28;20165;-75
2022/01/04 05:21:49;;;;;;;48.92;20.20;;;;;;;7.57;100.00;99482.50;4925239;28;20039;-74
2022/01/04 05:24:14;;;;;;;52.83;20.38;;;;;;;7.53;100.00;99472.47;4920657;28;20038;-74
2022/01/04 05:26:40;;;;;;;54.17;19.67;;;;;;;7.53;100.00;99451.03;4908985;28;21163;-74
2022/01/04 05:29:05;;;;;;;52.95;20.77;;;;;;;7.55;100.00;99465.03;4939124;28;20035;-75
2022/01/04 05:31:31;;;;;;;53.38;19.95;;;;;;;7.55;100.00;99459.66;4908474;28;20054;-74
2022/01/04 05:33:56;;;;;;;54.13;20.75;;;;;;;7.53;100.00;99430.41;4924901;28;20043;-75
2022/01/04 05:36:21;;;;;;;59.88;21.15;;;;;;;7.52;100.00;99444.03;4918731;28;20055;-74
2022/01/04 05:38:47;;;;;;;60.78;21.58;;;;;;;7.51;100.00;99448.59;4911439;28;20051;-75
2022/01/04 05:41:13;;;;;;;60.25;21.30;;;;;;;7.55;100.00;99455.13;4925512;28;20496;-74
2022/01/04 05:43:39;;;;;;;55.45;19.90;;;;;;;7.59;100.00;99434.88;4908468;28;20121;-75
2022/01/04 05:46:04;;;;;;;50.45;21.13;;;;;;;7.60;100.00;99427.63;4925138;28;20035;-75
2022/01/04 05:48:30;;;;;;;48.15;20.15;;;;;;;7.56;100.00;99423.78;4919646;28;20121;-75
2022/01/04 05:50:55;;;;;;;59.92;21.48;;;;;;;7.55;100.00;99433.69;4916209;28;20061;-75
2022/01/04 05:53:21;;;;;;;48.40;20.52;;;;;;;7.58;100.00;99416.31;4925108;28;20137;-75
2022/01/04 05:55:46;;;;;;;53.75;21.17;;;;;;;7.60;100.00;99424.97;4907863;28;20077;-74
2022/01/04 05:58:12;;;;;;;54.53;20.77;;;;;;;7.58;100.00;99421.66;4925719;28;20034;-74
2022/01/04 06:00:37;;;;;;;56.20;21.50;;;;;;;7.52;100.00;99407.34;4919580;28;20046;-75
2022/01/04 06:03:03;;;;;;;55.50;22.40;;;;;;;7.51;100.00;99399.50;4914392;28;20141;-75
2022/01/04 06:05:29;;;;;;;56.95;20.75;;;;;;;7.49;100.00;99380.19;4924885;28;20134;-75
2022/01/04 06:07:54;;;;;;;46.30;20.10;;;;;;;7.56;100.00;99387.06;4908316;28;20055;-75
2022/01/04 06:10:21;;;;;;;58.53;23.50;;;;;;;7.46;100.00;99394.03;4924043;28;20035;-75
2022/01/04 06:15:14;;;;;;;56.30;21.02;;;;;;;7.32;100.00;99396.88;4916463;28;20181;-75
2022/01/04 06:17:42;;;;;;;63.97;21.20;;;;;;;7.34;100.00;99404.72;4923854;28;21250;-75
2022/01/04 06:20:09;;;;;;;55.75;19.70;;;;;;;7.37;100.00;99396.19;4906273;28;20050;-75
2022/01/04 06:22:37;;;;;;;57.25;20.17;;;;;;;7.37;100.00;99394.38;4906882;28;21107;-74
2022/01/04 06:25:03;;;;;;;57.60;20.77;;;;;;;7.40;100.00;99409.97;4903179;28;21086;-74
2022/01/04 06:27:28;;;;;;;55.55;19.77;;;;;;;7.37;100.00;99405.09;4915512;28;20965;-74
2022/01/04 06:29:54;;;;;;;54.25;21.05;;;;;;;7.37;100.00;99401.56;4922725;28;20070;-74
2022/01/04 06:32:19;;;;;;;54.42;20.20;;;;;;;7.41;100.00;99410.81;4906690;28;20480;-74
2022/01/04 06:34:45;;;;;;;63.53;19.75;;;;;;;7.45;100.00;99405.81;4925529;28;20054;-74
2022/01/04 06:37:12;;;;;;;50.78;18.92;;;;;;;7.44;100.00;99404.16;4917018;28;20051;-74
2022/01/04 06:39:37;;;;;;;55.97;20.52;;;;;;;7.43;100.00;99403.34;4912093;28;20050;-74
2022/01/04 06:42:03;;;;;;;47.70;19.50;;;;;;;7.51;100.00;99400.34;4924162;28;20060;-74
2022/01/04 06:44:29;;;;;;;65.70;20.40;;;;;;;7.55;100.00;99395.34;4891415;28;20412;-74
2022/01/04 06:46:54;;;;;;;57.13;19.52;;;;;;;7.57;100.00;99383.34;4924544;28;20057;-74
2022/01/04 06:49:20;;;;;;;58.03;20.65;;;;;;;7.59;100.00;99381.25;4917851;28;20161;-74
2022/01/04 06:51:47;;;;;;;58.60;19.67;;;;;;;7.58;100.00;99385.00;4914032;28;21134;-74
2022/01/04 06:54:14;;;;;;;63.83;19.63;;;;;;;7.57;100.00;99387.88;4923856;28;22738;-74
2022/01/04 06:56:40;;;;;;;63.88;19.70;;;;;;;7.56;100.00;99375.53;4907366;28;20048;-74
2022/01/04 06:59:07;;;;;;;54.80;19.23;;;;;;;7.56;100.00;99364.84;4922946;28;20406;-75
2022/01/04 07:01:34;;;;;;;46.78;17.27;;;;;;;7.54;100.00;99372.25;4915743;28;20051;-75
2022/01/04 07:03:59;;;;;;;61.80;18.75;;;;;;;7.52;100.00;99377.88;4913420;28;20051;-76
2022/01/04 07:06:25;;;;;;;42.55;15.43;;;;;;;7.45;100.00;99376.34;4906720;28;20037;-75
2022/01/04 07:08:50;;;;;;;44.75;17.00;;;;;;;7.44;100.00;99380.03;4908807;28;20059;-75
2022/01/04 07:11:16;;;;;;;56.42;18.48;;;;;;;7.45;100.00;99371.78;4922956;28;20074;-76
2022/01/04 07:13:42;;;;;;;60.05;18.73;;;;;;;7.44;100.00;99366.63;4893908;28;20399;-75
2022/01/04 07:16:07;;;;;;;55.92;20.63;;;;;;;7.41;100.00;99359.91;4938719;28;20046;-76
2022/01/04 07:18:33;;;;;;;53.45;20.38;;;;;;;7.41;100.00;99363.38;4890851;28;20078;-75
2022/01/04 07:20:58;;;;;;;51.17;19.17;;;;;;;7.43;100.00;99359.66;4908100;28;20074;-75
2022/01/04 07:23:24;;;;;;;42.80;17.13;;;;;;;7.39;100.00;99360.09;4924123;28;20153;-76
2022/01/04 07:25:51;;;;;;;41.40;15.35;;;;;;;7.33;100.00;99363.69;4906521;28;20104;-76
2022/01/04 07:28:16;;;;;;;40.72;15.52;;;;;;;7.28;100.00;99352.03;4922006;28;20039;-75
2022/01/04 07:30:41;;;;;;;47.33;13.77;;;;;;;7.22;100.00;99363.66;4920386;28;20035;-76
2022/01/04 07:33:07;;;;;;;41.92;14.18;;;;;;;7.20;100.00;99361.22;4907649;28;20149;-76
2022/01/04 07:35:32;;;;;;;33.25;12.75;;;;;;;7.18;100.00;99361.44;4924726;28;20066;-75
2022/01/04 07:37:58;;;;;;;35.55;12.80;;;;;;;7.19;100.00;99364.91;4909559;28;20129;-76
2022/01/04 07:40:24;;;;;;;36.65;12.48;;;;;;;7.15;100.00;99359.19;4923335;28;20189;-76
2022/01/04 07:42:49;;;;;;;30.92;12.65;;;;;;;7.18;100.00;99360.63;4924399;28;20030;-76
2022/01/04 07:45:15;;;;;;;44.38;14.27;;;;;;;7.21;100.00;99365.53;4914418;28;20051;-76
2022/01/04 07:47:41;;;;;;;42.60;14.07;;;;;;;7.19;100.00;99356.88;4929164;28;20039;-76
2022/01/04 07:50:09;;;;;;;33.75;15.23;;;;;;;7.23;100.00;99362.59;4910359;28;20043;-76
2022/01/04 07:52:35;;;;;;;37.22;14.23;;;;;;;7.28;100.00;99346.69;4925992;28;20125;-76
2022/01/04 07:55:01;;;;;;;52.90;15.75;;;;;;;7.30;100.00;99344.59;4931613;28;20061;-76
2022/01/04 07:57:26;;;;;;;35.45;14.65;;;;;;;7.31;100.00;99341.69;4921326;28;20137;-76
2022/01/04 07:59:52;;;;;;;33.58;14.20;;;;;;;7.34;100.00;99335.06;4936251;28;20039;-76
2022/01/04 08:02:17;;;;;;;42.05;14.65;;;;;;;7.34;100.00;99335.06;4913943;28;20059;-76
2022/01/04 08:04:43;;;;;;;43.45;15.40;;;;;;;7.36;100.00;99349.84;4923516;28;20085;-75
2022/01/04 08:07:08;;;;;;;29.55;13.57;;;;;;;7.44;100.00;99362.13;4919346;28;20039;-80
2022/01/04 08:09:34;;;;;;;45.03;15.65;;;;;;;7.51;100.00;99362.00;4878090;28;20154;-78
2022/01/04 08:11:59;;;;;;;21.75;6.60;;;;;;;7.30;100.00;99349.94;4922943;28;20043;-78
2022/01/04 08:14:24;;;;;;;17.90;3.92;;;;;;;6.96;100.00;99338.88;4908182;28;20055;-75
2022/01/04 08:16:50;;;;;;;18.13;6.40;;;;;;;6.86;100.00;99339.41;4923679;28;20224;-79
2022/01/04 08:19:16;;;;;;;21.95;5.68;;;;;;;6.83;100.00;99339.03;4919671;28;20149;-79
2022/01/04 08:21:41;;;;;;;20.10;6.50;;;;;;;6.81;100.00;99335.75;4911103;28;20051;-80
2022/01/04 08:24:07;;;;;;;20.98;6.90;;;;;;;6.69;100.00;99328.50;4900953;28;20992;-76
2022/01/04 08:26:32;;;;;;;19.55;5.65;;;;;;;6.66;100.00;99333.47;4905114;28;20055;-76
2022/01/04 08:28:58;;;;;;;13.50;3.63;;;;;;;6.58;100.00;99328.44;4921914;28;20133;-75
2022/01/04 08:31:23;;;;;;;12.73;3.30;;;;;;;6.53;100.00;99336.31;4916193;28;20127;-76
2022/01/04 08:33:48;;;;;;;15.00;3.83;;;;;;;6.51;100.00;99335.72;4912269;28;20078;-76
2022/01/04 08:36:15;;;;;;;19.83;4.20;;;;;;;6.51;100.00;99341.06;4924909;28;20034;-76
2022/01/04 08:38:40;;;;;;;17.60;4.60;;;;;;;6.59;100.00;99348.78;4893358;28;20059;-76
2022/01/04 08:41:06;;;;;;;21.83;5.00;;;;;;;6.66;100.00;99338.81;4926778;28;20082;-76
2022/01/04 08:43:31;;;;;;;22.52;5.88;;;;;;;6.69;100.00;99341.06;4922464;28;20097;-75
2022/01/04 08:45:56;;;;;;;18.15;5.35;;;;;;;6.71;100.00;99330.16;4917178;28;20111;-76
2022/01/04 08:48:22;;;;;;;18.23;6.22;;;;;;;6.70;100.00;99334.66;4926757;28;20035;-75
2022/01/04 08:50:49;;;;;;;18.60;5.80;;;;;;;6.71;100.00;99330.97;4907042;28;20646;-75
2022/01/04 08:53:15;;;;;;;28.02;6.50;;;;;;;6.73;100.00;99328.84;4925337;28;20035;-74
2022/01/04 08:55:41;;;;;;;26.10;6.25;;;;;;;6.74;100.00;99335.03;4916534;28;20161;-75
2022/01/04 08:58:07;;;;;;;24.45;6.22;;;;;;;6.73;100.00;99334.22;4917268;28;22727;-75
2022/01/04 09:00:33;;;;;;;18.05;4.80;;;;;;;6.75;100.00;99337.50;4925614;28;20058;-75
2022/01/04 09:03:00;;;;;;;18.73;6.28;;;;;;;6.74;100.00;99337.69;4908046;28;20059;-75
2022/01/04 09:05:26;;;;;;;19.35;5.32;;;;;;;6.80;100.00;99342.16;4927704;28;20219;-75
2022/01/04 09:07:52;;;;;;;19.25;5.90;;;;;;;6.84;100.00;99352.19;4921118;28;20802;-76
2022/01/04 09:10:17;;;;;;;18.55;4.93;;;;;;;6.84;100.00;99352.19;4916878;28;20047;-76
2022/01/04 09:13:02;;;;;;;17.55;5.13;;;;;;;6.85;100.00;99347.69;4927995;28;20050;-75
2022/01/04 09:20:49;;;;;;;19.23;8.00;;;;;;;7.00;100.00;99374.06;4915074;28;20043;-76
2022/01/04 09:23:18;;;;;;;23.33;8.13;;;;;;;7.08;100.00;99389.78;4929104;28;20656;-77
2022/01/04 09:25:45;;;;;;;28.08;9.27;;;;;;;7.04;100.00;99396.66;4924763;28;20745;-76
2022/01/04 09:28:11;;;;;;;33.75;10.40;;;;;;;7.01;100.00;99399.78;4900012;28;20081;-75
2022/01/04 09:30:38;;;;;;;29.13;8.45;;;;;;;6.98;100.00;99384.97;4927396;28;20102;-76
2022/01/04 09:33:05;;;;;;;13.50;2.95;;;;;;;6.89;100.00;99384.47;4912769;28;20125;-76
2022/01/04 09:35:32;;;;;;;12.02;2.08;;;;;;;6.76;100.00;99383.81;4928503;28;20068;-77
2022/01/04 09:37:57;;;;;;;9.82;1.80;;;;;;;6.66;100.00;99387.00;4920191;28;20043;-75
2022/01/04 09:40:23;;;;;;;11.82;1.90;;;;;;;6.59;100.00;99391.59;4915541;28;20046;-75
2022/01/04 09:42:49;;;;;;;11.50;1.77;;;;;;;6.63;100.00;99390.09;4908206;28;20043;-75
2022/01/04 09:45:15;;;;;;;9.23;1.40;;;;;;;6.63;100.00;99392.78;4910884;28;20142;-75
2022/01/04 09:47:40;;;;;;;12.57;1.60;;;;;;;6.62;100.00;99383.13;4925631;28;20396;-76
2022/01/04 09:50:10;;;;;;;15.82;1.67;;;;;;;6.64;100.00;99399.78;4921863;28;20479;-74
2022/01/04 09:52:39;;;;;;;14.40;1.65;;;;;;;6.66;100.00;99405.72;4916213;28;20047;-76
2022/01/04 09:55:05;;;;;;;10.63;2.35;;;;;;;6.64;100.00;99415.84;4926017;28;20426;-76
2022/01/04 09:57:31;;;;;;;14.65;2.28;;;;;;;6.62;100.00;99412.56;4913294;28;20517;-76
2022/01/04 09:59:56;;;;;;;6.70;1.48;;;;;;;6.57;100.00;99417.78;4926551;28;20027;-76
2022/01/04 10:02:26;;;;;;;12.68;1.80;;;;;;;6.42;100.00;99418.09;4936535;28;20061;-76
2022/01/04 10:04:52;;;;;;;8.60;1.40;;;;;;;6.39;100.00;99424.72;4917282;28;20498;-77
2022/01/04 10:07:20;;;;;;;15.02;1.58;;;;;;;6.35;100.00;99428.03;4925249;28;20133;-76
2022/01/04 10:09:48;;;;;;;8.07;1.42;;;;;;;6.30;100.00;99419.88;4908003;28;25240;-77
2022/01/04 10:12:16;;;;;;;8.35;1.58;;;;;;;6.26;100.00;99422.16;4922637;28;20030;-76
2022/01/04 10:14:47;;;;;;;13.55;2.70;;;;;;;6.09;100.00;99405.03;4918667;28;20269;-76
2022/01/04 10:17:17;;;;;;;10.13;2.08;;;;;;;6.05;100.00;99401.19;4924647;28;20491;-76
2022/01/04 10:19:48;;;;;;;8.68;1.02;;;;;;;6.06;100.00;99406.28;4927449;28;20031;-74
2022/01/04 10:22:16;;;;;;;9.73;1.67;;;;;;;6.06;100.00;99405.47;4909859;28;20047;-75
2022/01/04 10:24:43;;;;;;;5.78;0.95;;;;;;;5.96;100.00;99404.09;4927526;28;20032;-76
2022/01/04 10:27:45;;;;;;;8.10;1.00;;;;;;;6.03;100.00;99405.91;4911886;28;20050;-76
2022/01/04 10:30:23;;;;;;;8.00;0.82;;;;;;;6.06;100.00;99413.50;4890534;29;20047;-76
2022/01/04 10:33:09;;;;;;;7.45;1.38;;;;;;;5.92;100.00;99416.28;4907140;28;20137;-75
2022/01/04 10:35:37;;;;;;;6.63;1.15;;;;;;;5.71;100.00;99416.59;4940700;28;20035;-76
2022/01/04 10:38:11;;;;;;;11.57;1.88;;;;;;;5.63;100.00;99424.88;4923976;28;20153;-75
2022/01/04 10:40:38;;;;;;;5.88;1.30;;;;;;;5.57;100.00;99425.72;4917630;28;20542;-75
2022/01/04 10:43:09;;;;;;;9.70;1.40;;;;;;;5.43;100.00;99423.13;4925915;28;20043;-74
2022/01/04 10:45:36;;;;;;;12.35;1.50;;;;;;;5.32;100.00;99417.66;4910544;28;20050;-75
2022/01/04 10:48:22;;;;;;;6.75;1.23;;;;;;;5.32;100.00;99431.00;4925945;28;20533;-75
2022/01/04 10:50:51;;;;;;;9.55;1.15;;;;;;;5.32;100.00;99434.50;4919898;28;20129;-75
2022/01/04 10:53:21;;;;;;;6.88;1.10;;;;;;;5.31;100.00;99432.88;4922800;28;20058;-74
2022/01/04 10:55:47;;;;;;;8.77;1.00;;;;;;;5.34;100.00;99429.78;4923504;28;20038;-75
2022/01/04 10:58:43;;;;;;;8.73;0.98;;;;;;;5.43;100.00;99433.00;4906928;28;20585;-75
2022/01/04 11:01:14;;;;;;;6.65;0.90;;;;;;;5.39;100.00;99434.47;4923818;28;20054;-74
2022/01/04 11:03:44;;;;;;;13.15;1.40;;;;;;;5.42;100.00;99434.84;4908407;28;20047;-74
2022/01/04 11:06:14;;;;;;;9.57;0.80;;;;;;;5.59;100.00;99423.69;4928539;28;20038;-74
2022/01/04 11:08:41;;;;;;;9.07;1.13;;;;;;;5.72;100.00;99426.25;4917837;28;20273;-74
2022/01/04 11:11:07;;;;;;;7.60;1.20;;;;;;;5.81;100.00;99432.97;4917439;28;20085;-74
2022/01/04 11:13:33;;;;;;;8.05;1.08;;;;;;;5.81;100.00;99424.97;4925562;28;20187;-74
2022/01/04 11:16:01;;;;;;;8.52;1.50;;;;;;;5.90;100.00;99415.66;4907263;28;20175;-75
2022/01/04 11:18:27;;;;;;;4.78;0.60;;;;;;;5.88;100.00;99417.72;4921905;28;20034;-75
2022/01/04 11:20:53;;;;;;;9.52;1.25;;;;;;;5.81;100.00;99416.94;4917869;28;20043;-73
2022/01/04 11:23:23;;;;;;;5.90;0.95;;;;;;;5.70;100.00;99414.97;4925483;28;20034;-76
2022/01/04 11:25:49;;;;;;;4.97;0.90;;;;;;;5.63;100.00;99440.91;4907898;28;20046;-74
2022/01/04 11:28:15;;;;;;;3.55;0.90;;;;;;;5.41;100.00;99433.22;4909874;28;20110;-75
2022/01/04 11:30:54;;;;;;;3.88;0.70;;;;;;;5.18;100.00;99439.06;4924962;28;20070;-76